Terminal Aerodrome Forecast
Issued by NWS Twin Cities, MN

Home | Current Version | Previous Version | Graphics & Text | Print | Product List | Glossary On
Versions: 1 2 3 4 5 6 7 8 9 10 11 12 13 14 15 16 17 18 19 20 21 22 23 24 25 26 27 28 29 30 31 32
000
FTUS43 KMPX 301100
TAFMSP
TAF
KMSP 301138Z 3012/3118 35004KT P6SM VCSH SCT012 BKN020
      TEMPO 3012/3014 BKN012
     FM301800 34005KT P6SM BKN025 OVC040
     FM302000 VRB03KT P6SM SCT025 BKN050
     FM310300 14003KT P6SM FEW250
     FM311500 14010KT P6SM SCT080 BKN150=

USA.gov is the U.S. government's official web portal to all federal, state and local government web resources and services.